Time;durP1;ratioP1;P1;durP2;ratioP2;P2;SDS_P1;SDS_P2;PMS_P1;PMS_P2;Temp;Humidity;BMP_temperature;BMP_pressure;BME280_temperature;BME280_humidity;BME280_pressure;Samples;Min_cycle;Max_cycle;Signal;HPM_P1;HPM_P2
2023/10/01 00:01:53;;;;;;;1.73;1.20;;;13.30;99.90;;;;;;5074667;28;20469;-83
2023/10/01 00:04:20;;;;;;;5.17;1.67;;;13.30;99.90;;;;;;5074796;28;20528;-82
2023/10/01 00:06:48;;;;;;;6.87;2.63;;;13.20;99.90;;;;;;5074668;28;20441;-83
2023/10/01 00:09:19;;;;;;;3.23;1.93;;;13.20;99.90;;;;;;5074361;28;20448;-83
2023/10/01 00:11:46;;;;;;;5.33;1.90;;;13.20;99.90;;;;;;5074841;28;20436;-82
2023/10/01 00:14:16;;;;;;;3.47;1.70;;;13.20;99.90;;;;;;5074557;28;20445;-83
2023/10/01 00:16:43;;;;;;;4.60;1.93;;;13.30;99.90;;;;;;5074077;28;20531;-83
2023/10/01 00:19:10;;;;;;;3.53;1.40;;;13.30;99.90;;;;;;5074416;28;20520;-82
2023/10/01 00:21:37;;;;;;;4.43;1.67;;;13.10;99.90;;;;;;5074601;28;20483;-82
2023/10/01 00:24:06;;;;;;;3.57;1.27;;;13.20;99.90;;;;;;5074388;28;20494;-83
2023/10/01 00:26:32;;;;;;;4.33;2.00;;;13.10;99.90;;;;;;5074437;28;20445;-83
2023/10/01 00:28:59;;;;;;;3.23;1.43;;;13.10;99.90;;;;;;5073989;28;20826;-83
2023/10/01 00:31:26;;;;;;;10.03;2.00;;;13.00;99.90;;;;;;5073960;28;20433;-83
2023/10/01 00:33:53;;;;;;;8.27;2.50;;;13.10;99.90;;;;;;5074191;28;20440;-83
2023/10/01 00:36:20;;;;;;;2.70;1.23;;;13.00;99.90;;;;;;5073712;28;20477;-83
2023/10/01 00:38:48;;;;;;;6.83;2.20;;;13.00;99.90;;;;;;5074967;28;20566;-83
2023/10/01 00:41:18;;;;;;;4.87;2.10;;;13.00;99.90;;;;;;5074222;28;20486;-83
2023/10/01 00:43:44;;;;;;;5.77;2.27;;;13.00;99.90;;;;;;5073649;28;20476;-83
2023/10/01 00:46:11;;;;;;;1.20;1.00;;;13.00;99.90;;;;;;5074221;28;20799;-83
2023/10/01 00:48:41;;;;;;;3.67;1.50;;;12.90;99.90;;;;;;5074205;28;20441;-83
2023/10/01 00:51:08;;;;;;;10.37;1.70;;;12.90;99.90;;;;;;5073893;28;20429;-83
2023/10/01 00:53:35;;;;;;;2.07;1.20;;;12.80;99.90;;;;;;5073247;28;20457;-83
2023/10/01 00:56:03;;;;;;;3.27;1.57;;;12.90;99.90;;;;;;5073630;28;21083;-83
2023/10/01 00:58:31;;;;;;;2.90;1.50;;;12.90;99.90;;;;;;5073402;28;20448;-82
2023/10/01 01:00:59;;;;;;;7.70;2.20;;;12.90;99.90;;;;;;5073962;28;20456;-82
2023/10/01 01:03:26;;;;;;;3.03;1.30;;;12.80;99.90;;;;;;5074005;28;20827;-83
2023/10/01 01:06:12;;;;;;;2.23;1.57;;;12.80;99.90;;;;;;5073726;28;20452;-83
2023/10/01 01:08:47;;;;;;;2.50;1.90;;;12.70;99.90;;;;;;5073643;28;20524;-82
2023/10/01 01:11:15;;;;;;;2.80;1.37;;;12.80;99.90;;;;;;5073597;28;20421;-82
2023/10/01 01:13:44;;;;;;;3.10;1.17;;;12.70;99.90;;;;;;5073383;28;20460;-83
2023/10/01 01:16:11;;;;;;;5.23;2.30;;;12.70;99.90;;;;;;5073408;28;20480;-82
2023/10/01 01:18:41;;;;;;;6.47;1.77;;;12.70;99.90;;;;;;5073196;28;20437;-82
2023/10/01 01:21:10;;;;;;;4.83;1.30;;;12.70;99.90;;;;;;5073151;28;20445;-83
2023/10/01 01:23:41;;;;;;;6.20;3.37;;;12.70;99.90;;;;;;5073435;28;20465;-82
2023/10/01 01:26:10;;;;;;;2.60;1.47;;;12.70;99.90;;;;;;5073215;28;20915;-82
2023/10/01 01:28:37;;;;;;;3.03;1.73;;;12.60;99.90;;;;;;5073321;28;20489;-83
2023/10/01 01:31:05;;;;;;;2.40;1.10;;;12.60;99.90;;;;;;5073006;28;21040;-82
2023/10/01 01:33:40;;;;;;;7.93;2.33;;;12.60;99.90;;;;;;5073231;28;20469;-82
2023/10/01 01:36:10;;;;;;;10.23;1.53;;;12.50;99.90;;;;;;5073231;28;20468;-82
2023/10/01 01:38:48;;;;;;;3.23;1.77;;;12.50;99.90;;;;;;5072921;28;20894;-82
2023/10/01 01:41:19;;;;;;;3.10;1.50;;;12.50;99.90;;;;;;5073246;28;20428;-83
2023/10/01 01:43:48;;;;;;;2.20;1.97;;;12.60;99.90;;;;;;5072767;28;20488;-82
2023/10/01 01:46:15;;;;;;;6.60;2.17;;;12.40;99.90;;;;;;5072866;28;20961;-82
2023/10/01 01:48:43;;;;;;;3.23;1.30;;;12.50;99.90;;;;;;5072813;28;20968;-82
2023/10/01 01:51:10;;;;;;;5.43;2.40;;;12.40;99.90;;;;;;5073131;28;20449;-83
2023/10/01 01:53:41;;;;;;;5.40;2.00;;;12.40;99.90;;;;;;5073068;28;20465;-83
2023/10/01 01:56:11;;;;;;;5.43;2.10;;;12.40;99.90;;;;;;5073356;28;20488;-82
2023/10/01 01:58:40;;;;;;;10.87;2.03;;;12.40;99.90;;;;;;5073104;28;20471;-83
2023/10/01 02:01:17;;;;;;;1.90;1.37;;;12.40;99.90;;;;;;5073507;28;20922;-83
2023/10/01 02:03:50;;;;;;;3.30;1.93;;;12.40;99.90;;;;;;5072702;28;20478;-82
2023/10/01 02:06:26;;;;;;;4.77;1.97;;;12.40;99.90;;;;;;5076556;28;20417;-82
2023/10/01 02:08:57;;;;;;;2.60;1.57;;;12.40;99.90;;;;;;5077006;28;20436;-82
2023/10/01 02:11:24;;;;;;;4.53;1.80;;;12.40;99.90;;;;;;5076668;28;20984;-82
2023/10/01 02:13:54;;;;;;;6.53;2.93;;;12.40;99.90;;;;;;5077071;28;20474;-82
2023/10/01 02:16:37;;;;;;;4.13;1.67;;;12.40;99.90;;;;;;5076803;28;20469;-82
2023/10/01 02:19:21;;;;;;;8.47;2.33;;;12.40;99.90;;;;;;5076502;28;20849;-82
2023/10/01 02:21:52;;;;;;;3.80;2.03;;;12.40;99.90;;;;;;5076720;28;20478;-82
2023/10/01 02:24:23;;;;;;;4.17;1.50;;;12.50;99.90;;;;;;5076421;28;20435;-83
2023/10/01 02:26:53;;;;;;;4.10;2.03;;;12.40;99.90;;;;;;5077020;28;20425;-83
2023/10/01 02:29:24;;;;;;;4.73;2.27;;;12.40;99.90;;;;;;5076779;28;20441;-83
2023/10/01 02:31:55;;;;;;;2.50;2.17;;;12.30;99.90;;;;;;5076383;28;20824;-83
2023/10/01 02:34:22;;;;;;;4.87;2.63;;;12.40;99.90;;;;;;5076545;28;20439;-82
2023/10/01 02:36:49;;;;;;;9.13;1.87;;;12.30;99.90;;;;;;5076382;28;20476;-82
2023/10/01 02:39:21;;;;;;;3.87;1.67;;;12.30;99.90;;;;;;5076352;28;20451;-83
2023/10/01 02:42:09;;;;;;;3.67;2.10;;;12.30;99.90;;;;;;5076209;28;20554;-82
2023/10/01 02:44:39;;;;;;;1.57;1.47;;;12.30;99.90;;;;;;5075093;28;20536;-82
2023/10/01 02:47:16;;;;;;;5.60;1.83;;;12.30;99.90;;;;;;5076247;28;20490;-82
2023/10/01 02:49:49;;;;;;;3.43;2.07;;;12.30;99.90;;;;;;5076357;28;20478;-82
2023/10/01 02:52:15;;;;;;;2.57;1.30;;;12.30;99.90;;;;;;5076144;28;20475;-82
2023/10/01 02:54:42;;;;;;;5.70;2.20;;;12.30;99.90;;;;;;5075795;28;20498;-83
2023/10/01 02:57:12;;;;;;;3.33;1.67;;;12.30;99.90;;;;;;5075725;28;20571;-83
2023/10/01 03:00:09;;;;;;;4.47;1.63;;;12.20;99.90;;;;;;5075764;28;20460;-83
2023/10/01 03:02:25;;;;;;;3.33;1.33;;;12.20;99.90;;;;;;5075575;28;20471;-83
2023/10/01 03:04:51;;;;;;;4.83;2.63;;;12.20;99.90;;;;;;5076019;28;20865;-83
2023/10/01 03:07:18;;;;;;;2.67;1.80;;;12.10;99.90;;;;;;5076400;28;20199;-82
2023/10/01 03:09:48;;;;;;;2.03;1.50;;;12.10;99.90;;;;;;5075534;28;20820;-83
2023/10/01 03:12:34;;;;;;;2.23;1.20;;;12.10;99.90;;;;;;5076057;28;20469;-83
2023/10/01 03:15:00;;;;;;;2.20;1.47;;;12.10;99.90;;;;;;5075480;28;20426;-82
2023/10/01 03:17:27;;;;;;;4.57;1.67;;;12.00;99.90;;;;;;5075455;28;20525;-83
2023/10/01 03:19:53;;;;;;;6.70;1.57;;;12.00;99.90;;;;;;5075643;28;20476;-82
2023/10/01 03:22:23;;;;;;;4.73;2.10;;;12.00;99.90;;;;;;5075543;28;20981;-83
2023/10/01 03:24:51;;;;;;;4.57;2.73;;;12.00;99.90;;;;;;5076116;28;20241;-82
2023/10/01 03:27:25;;;;;;;4.70;1.57;;;11.90;99.90;;;;;;5075201;28;20527;-82
2023/10/01 03:30:00;;;;;;;1.77;1.13;;;12.00;99.90;;;;;;5075574;28;20441;-82
2023/10/01 03:32:28;;;;;;;3.93;1.70;;;12.00;99.90;;;;;;5075084;28;20988;-82
2023/10/01 03:34:55;;;;;;;2.10;1.50;;;11.90;99.90;;;;;;5075343;28;20452;-82
2023/10/01 03:37:27;;;;;;;3.87;2.17;;;12.10;99.90;;;;;;5075228;28;20488;-82
2023/10/01 03:40:03;;;;;;;1.57;1.20;;;12.00;99.90;;;;;;5075116;28;20558;-83
2023/10/01 03:42:33;;;;;;;9.80;2.20;;;12.00;99.90;;;;;;5074880;28;20603;-83
2023/10/01 03:45:19;;;;;;;7.07;1.40;;;12.00;99.90;;;;;;5074871;28;20965;-83
2023/10/01 03:47:57;;;;;;;2.57;1.50;;;12.00;99.90;;;;;;5075201;28;20422;-82
2023/10/01 03:50:25;;;;;;;3.07;1.20;;;13.00;99.90;;;;;;5075105;28;20491;-82
2023/10/01 03:52:53;;;;;;;8.10;1.87;;;12.00;99.90;;;;;;5074984;28;20473;-82
2023/10/01 03:55:27;;;;;;;5.60;1.87;;;12.00;99.90;;;;;;5074992;28;20475;-82
2023/10/01 03:58:06;;;;;;;3.30;1.80;;;12.00;99.90;;;;;;5074894;28;20511;-82
2023/10/01 04:00:40;;;;;;;5.00;2.23;;;11.80;99.90;;;;;;5075104;28;20439;-83
2023/10/01 04:03:08;;;;;;;2.33;1.83;;;11.90;99.90;;;;;;5074940;28;20469;-82
2023/10/01 04:05:37;;;;;;;5.43;2.43;;;11.80;99.90;;;;;;5074481;28;20489;-82
2023/10/01 04:08:08;;;;;;;5.13;1.90;;;11.90;99.90;;;;;;5074755;28;20447;-82
2023/10/01 04:10:38;;;;;;;2.43;1.70;;;11.90;99.90;;;;;;5074758;28;20447;-83
2023/10/01 04:13:13;;;;;;;5.60;2.00;;;11.90;99.90;;;;;;5074539;28;20551;-82
2023/10/01 04:15:46;;;;;;;4.63;1.33;;;11.90;99.90;;;;;;5074601;28;20485;-83
2023/10/01 04:18:23;;;;;;;5.53;1.83;;;11.90;99.90;;;;;;5074481;28;20465;-83
2023/10/01 04:23:47;;;;;;;3.63;2.00;;;11.90;99.90;;;;;;5074243;28;20499;-83
2023/10/01 04:26:17;;;;;;;7.20;2.70;;;11.90;99.90;;;;;;5074094;28;20448;-83
2023/10/01 04:28:47;;;;;;;2.50;1.33;;;11.90;99.90;;;;;;5073494;28;20456;-82
2023/10/01 04:31:18;;;;;;;5.00;1.57;;;11.80;99.90;;;;;;5075034;28;20425;-83
2023/10/01 04:33:47;;;;;;;3.70;1.60;;;11.80;99.90;;;;;;5073901;28;20969;-83
2023/10/01 04:36:16;;;;;;;5.30;2.03;;;11.80;99.90;;;;;;5074096;28;20883;-83
2023/10/01 04:38:45;;;;;;;3.77;1.50;;;11.80;99.90;;;;;;5073782;28;20452;-82
2023/10/01 04:41:16;;;;;;;6.83;2.53;;;11.80;99.90;;;;;;5074032;28;20456;-82
2023/10/01 04:43:55;;;;;;;3.97;1.53;;;11.80;99.90;;;;;;5073689;28;20567;-82
2023/10/01 04:46:24;;;;;;;2.17;1.17;;;11.80;99.90;;;;;;5074049;28;20429;-83
2023/10/01 04:48:52;;;;;;;2.83;1.57;;;11.80;99.90;;;;;;5073912;28;20445;-83
2023/10/01 04:51:21;;;;;;;2.30;1.67;;;11.80;99.90;;;;;;5073899;28;20453;-83
2023/10/01 04:53:48;;;;;;;4.20;1.83;;;11.80;99.90;;;;;;5073717;28;20465;-83
2023/10/01 04:56:20;;;;;;;8.33;1.60;;;11.80;99.90;;;;;;5073777;28;20445;-83
2023/10/01 04:58:52;;;;;;;3.07;2.37;;;11.90;99.90;;;;;;5073792;28;20421;-83
2023/10/01 05:01:23;;;;;;;3.73;1.40;;;12.10;99.90;;;;;;5073751;28;20425;-83
2023/10/01 05:03:50;;;;;;;5.87;1.70;;;11.90;99.90;;;;;;5074320;28;20572;-83
2023/10/01 05:06:20;;;;;;;3.90;2.10;;;11.90;99.90;;;;;;5073651;28;20574;-82
2023/10/01 05:08:49;;;;;;;7.10;1.70;;;11.90;99.90;;;;;;5073659;28;20441;-82
2023/10/01 05:11:21;;;;;;;7.97;2.30;;;11.90;99.90;;;;;;5073528;28;20441;-83
2023/10/01 05:13:51;;;;;;;4.90;2.83;;;11.90;99.90;;;;;;5073579;28;20460;-83
2023/10/01 05:16:26;;;;;;;3.50;1.40;;;11.90;99.90;;;;;;5073561;28;20425;-83
2023/10/01 05:19:07;;;;;;;5.00;1.40;;;11.90;99.90;;;;;;5073551;28;20412;-83
2023/10/01 05:21:36;;;;;;;4.40;1.97;;;12.00;99.90;;;;;;5073412;28;20442;-83
2023/10/01 05:24:03;;;;;;;1.37;1.10;;;12.10;99.90;;;;;;5073418;28;20444;-83
2023/10/01 05:26:35;;;;;;;2.90;1.87;;;12.10;99.90;;;;;;5073439;28;20441;-83
2023/10/01 05:29:06;;;;;;;2.20;1.27;;;12.10;99.90;;;;;;5073956;28;20434;-83
2023/10/01 05:31:34;;;;;;;3.77;1.87;;;12.10;99.90;;;;;;5080033;28;20425;-83
2023/10/01 05:34:01;;;;;;;2.13;1.60;;;12.10;99.90;;;;;;5073415;28;20782;-83
2023/10/01 05:36:29;;;;;;;3.63;2.17;;;12.00;99.90;;;;;;5072978;28;20440;-83
2023/10/01 05:38:56;;;;;;;8.70;2.70;;;12.00;99.90;;;;;;5073025;28;20428;-83
2023/10/01 05:41:32;;;;;;;4.33;1.80;;;12.00;99.90;;;;;;5073166;28;20440;-83
2023/10/01 05:44:01;;;;;;;3.83;2.33;;;12.00;99.90;;;;;;5069760;28;20480;-82
2023/10/01 05:46:30;;;;;;;2.10;1.33;;;11.90;99.90;;;;;;5072871;28;20445;-83
2023/10/01 05:49:00;;;;;;;2.43;1.80;;;11.90;99.90;;;;;;5073171;28;20433;-83
2023/10/01 05:51:42;;;;;;;2.30;1.77;;;11.90;99.90;;;;;;5073164;28;20531;-83
2023/10/01 05:54:09;;;;;;;2.50;1.57;;;11.80;99.90;;;;;;5073209;28;20440;-83
2023/10/01 05:56:43;;;;;;;2.73;1.57;;;11.90;99.90;;;;;;5072967;28;20880;-83
2023/10/01 05:59:12;;;;;;;2.30;1.60;;;12.00;99.90;;;;;;5072847;28;20433;-83
2023/10/01 06:01:41;;;;;;;7.63;2.50;;;11.90;99.90;;;;;;5073249;28;20440;-83
2023/10/01 06:04:12;;;;;;;2.07;1.67;;;12.00;99.90;;;;;;5073078;28;20445;-83
2023/10/01 06:06:42;;;;;;;5.93;2.20;;;12.10;99.90;;;;;;5073341;28;20422;-83
2023/10/01 06:09:14;;;;;;;8.47;2.57;;;12.20;99.90;;;;;;5072726;28;20449;-83
2023/10/01 06:11:49;;;;;;;5.13;2.27;;;12.20;99.90;;;;;;5072633;28;20938;-83
2023/10/01 06:17:04;;;;;;;6.20;1.97;;;12.30;99.90;;;;;;5072662;28;20400;-82
2023/10/01 06:19:33;;;;;;;3.73;2.77;;;12.40;99.90;;;;;;5073131;28;20437;-82
2023/10/01 06:22:12;;;;;;;2.83;2.40;;;12.40;99.90;;;;;;5072846;28;20518;-83
2023/10/01 06:24:39;;;;;;;2.80;1.60;;;12.40;99.90;;;;;;5072593;28;20905;-83
2023/10/01 06:27:09;;;;;;;4.33;2.37;;;12.40;99.90;;;;;;5072484;28;20984;-83
2023/10/01 06:29:49;;;;;;;2.13;1.57;;;12.40;99.90;;;;;;5072806;28;20544;-83
2023/10/01 06:32:20;;;;;;;4.60;2.13;;;12.50;99.90;;;;;;5072703;28;20468;-83
2023/10/01 06:34:49;;;;;;;3.37;2.27;;;12.40;99.90;;;;;;5072827;28;20453;-83
2023/10/01 06:37:18;;;;;;;12.90;2.43;;;12.50;99.90;;;;;;5072538;28;20489;-83
2023/10/01 06:39:46;;;;;;;3.30;1.67;;;12.50;99.90;;;;;;5072707;28;20906;-83
2023/10/01 06:42:19;;;;;;;2.40;1.57;;;12.50;99.90;;;;;;5072321;28;21000;-83
2023/10/01 06:44:48;;;;;;;2.73;2.53;;;13.10;99.90;;;;;;5072618;28;20961;-83
2023/10/01 06:47:17;;;;;;;6.03;1.53;;;12.60;99.90;;;;;;5072660;28;20449;-83
2023/10/01 06:49:57;;;;;;;2.87;1.30;;;12.60;99.90;;;;;;5072616;28;20441;-83
2023/10/01 06:52:25;;;;;;;3.33;2.20;;;12.70;99.90;;;;;;5075837;28;20479;-83
2023/10/01 06:54:52;;;;;;;4.33;1.97;;;12.70;99.90;;;;;;5075796;28;20445;-82
2023/10/01 06:57:21;;;;;;;3.33;1.93;;;12.70;99.90;;;;;;5076027;28;20480;-83
2023/10/01 06:59:48;;;;;;;5.60;2.50;;;12.80;99.90;;;;;;5076013;28;20440;-84
2023/10/01 07:02:17;;;;;;;5.77;1.87;;;12.80;99.90;;;;;;5075890;28;20468;-83
2023/10/01 07:04:56;;;;;;;4.90;1.53;;;12.90;99.90;;;;;;5075924;28;20444;-83
2023/10/01 07:07:23;;;;;;;2.33;2.10;;;13.50;99.90;;;;;;5076062;28;20429;-83
2023/10/01 07:09:53;;;;;;;6.53;2.17;;;13.00;99.90;;;;;;5075855;28;20542;-83
2023/10/01 07:12:23;;;;;;;5.23;2.37;;;13.10;99.90;;;;;;5075833;28;20471;-83
2023/10/01 07:14:50;;;;;;;5.00;2.50;;;13.10;99.90;;;;;;5076105;28;20431;-82
2023/10/01 07:17:23;;;;;;;6.97;2.17;;;13.20;99.90;;;;;;5075388;28;20448;-83
2023/10/01 07:19:59;;;;;;;5.03;1.77;;;13.30;99.90;;;;;;5075440;28;20917;-83
2023/10/01 07:22:26;;;;;;;3.93;2.13;;;13.90;99.90;;;;;;5075290;28;20460;-83
2023/10/01 07:24:53;;;;;;;6.80;2.00;;;13.50;99.90;;;;;;5076141;28;20841;-83
2023/10/01 07:27:21;;;;;;;4.23;1.50;;;13.70;99.90;;;;;;5075251;28;20437;-82
2023/10/01 07:29:53;;;;;;;5.43;1.73;;;13.80;99.90;;;;;;5075736;28;20522;-82
2023/10/01 07:32:24;;;;;;;4.63;1.87;;;13.90;99.90;;;;;;5075225;28;20475;-83
2023/10/01 07:34:55;;;;;;;5.10;2.20;;;14.00;99.90;;;;;;5075494;28;20464;-82
2023/10/01 07:37:25;;;;;;;3.93;2.00;;;14.20;99.90;;;;;;5075029;28;20438;-83
2023/10/01 07:39:55;;;;;;;3.00;2.00;;;14.30;99.90;;;;;;5075751;28;20784;-82
2023/10/01 07:42:22;;;;;;;7.03;2.33;;;14.40;99.90;;;;;;5074920;28;20476;-83
2023/10/01 07:44:49;;;;;;;4.10;1.73;;;14.50;99.90;;;;;;5075228;28;20539;-82
2023/10/01 07:47:29;;;;;;;18.63;2.63;;;14.60;99.90;;;;;;5075273;28;20449;-83
2023/10/01 07:49:57;;;;;;;3.90;2.70;;;14.70;99.90;;;;;;5075195;28;20528;-83
2023/10/01 07:52:24;;;;;;;4.40;2.13;;;14.80;99.90;;;;;;5074728;28;20476;-83
2023/10/01 07:54:51;;;;;;;5.37;2.87;;;14.90;99.90;;;;;;5074987;28;20445;-83
2023/10/01 07:57:27;;;;;;;5.33;1.67;;;15.00;99.90;;;;;;5074866;28;20444;-83
2023/10/01 07:59:54;;;;;;;3.10;1.63;;;15.10;99.90;;;;;;5074980;28;20443;-83
2023/10/01 08:02:21;;;;;;;3.30;1.40;;;15.20;99.90;;;;;;5074746;28;20460;-83
2023/10/01 08:04:57;;;;;;;16.87;2.07;;;15.40;99.90;;;;;;5074528;28;20445;-83
2023/10/01 08:07:33;;;;;;;7.40;3.10;;;15.50;99.90;;;;;;5074562;28;20838;-83
2023/10/01 08:10:16;;;;;;;3.40;1.83;;;15.90;99.90;;;;;;5074858;28;20456;-83
2023/10/01 08:13:04;;;;;;;2.60;1.27;;;15.90;99.90;;;;;;5074895;28;20518;-83
2023/10/01 08:15:32;;;;;;;4.93;2.67;;;16.20;99.90;;;;;;5074927;28;20867;-83
2023/10/01 08:18:19;;;;;;;1.57;1.17;;;16.30;99.90;;;;;;5074759;28;21020;-83
2023/10/01 08:20:57;;;;;;;5.07;1.50;;;16.50;99.90;;;;;;5074581;28;20433;-83
2023/10/01 08:23:27;;;;;;;4.20;1.80;;;16.70;99.90;;;;;;5074372;28;20479;-83
2023/10/01 08:25:55;;;;;;;4.90;2.50;;;16.80;99.90;;;;;;5074381;28;20449;-83
2023/10/01 08:28:43;;;;;;;3.43;2.00;;;17.10;99.90;;;;;;5074317;28;20459;-83
2023/10/01 08:31:43;;;;;;;3.10;1.43;;;17.20;99.90;;;;;;5074036;28;20918;-83
2023/10/01 08:36:48;;;;;;;21.07;3.00;;;17.60;99.90;;;;;;5074278;28;20486;-83
2023/10/01 08:39:33;;;;;;;10.93;1.90;;;17.80;99.90;;;;;;5073515;28;21000;-84
2023/10/01 08:42:08;;;;;;;5.70;2.50;;;18.00;99.90;;;;;;5073608;28;20982;-83
2023/10/01 08:44:44;;;;;;;7.53;2.60;;;18.20;99.90;;;;;;5073756;28;20804;-82
2023/10/01 08:47:27;;;;;;;5.53;2.27;;;18.30;99.90;;;;;;5074042;28;20443;-82
2023/10/01 08:49:55;;;;;;;2.97;1.67;;;18.30;99.90;;;;;;5073922;28;20437;-83
2023/10/01 08:52:26;;;;;;;3.03;1.83;;;18.60;99.90;;;;;;5073879;28;20491;-83
2023/10/01 08:54:55;;;;;;;3.60;1.53;;;18.70;99.90;;;;;;5073920;28;20471;-83
2023/10/01 09:00:16;;;;;;;6.43;1.70;;;19.40;99.90;;;;;;5070629;28;20449;-82
2023/10/01 09:02:43;;;;;;;4.63;2.30;;;19.90;99.90;;;;;;5073654;28;20465;-82
2023/10/01 09:05:11;;;;;;;1.67;1.23;;;20.50;99.90;;;;;;5073658;28;20441;-83
2023/10/01 09:07:42;;;;;;;7.67;1.57;;;21.10;99.90;;;;;;5073296;28;20828;-83
2023/10/01 09:10:17;;;;;;;2.37;1.50;;;21.60;99.90;;;;;;5073710;28;20429;-83
2023/10/01 09:12:46;;;;;;;6.77;1.93;;;22.10;99.90;;;;;;5073738;28;20491;-83
2023/10/01 09:15:27;;;;;;;4.37;1.80;;;22.80;99.90;;;;;;5072900;28;20452;-83
2023/10/01 09:17:59;;;;;;;6.77;1.40;;;23.70;99.90;;;;;;5073534;28;20482;-83
2023/10/01 09:20:39;;;;;;;4.03;1.20;;;24.30;99.90;;;;;;5073370;28;20905;-82
2023/10/01 09:23:06;;;;;;;7.10;1.73;;;24.50;99.90;;;;;;5073442;28;20504;-82
2023/10/01 09:25:39;;;;;;;4.70;2.50;;;24.90;99.90;;;;;;5073125;28;20956;-83
2023/10/01 09:28:20;;;;;;;3.33;2.33;;;24.70;99.90;;;;;;5073114;28;20438;-83
2023/10/01 09:31:02;;;;;;;2.53;1.40;;;24.80;99.90;;;;;;5073166;28;20413;-83
2023/10/01 09:33:32;;;;;;;3.07;1.30;;;25.00;99.90;;;;;;5073320;28;20312;-82
2023/10/01 09:36:00;;;;;;;5.65;1.52;;;25.00;99.90;;;;;;5073326;28;20462;-83
2023/10/01 09:38:28;;;;;;;2.80;1.37;;;25.20;99.90;;;;;;5073257;28;20259;-83
2023/10/01 09:40:57;;;;;;;3.53;1.77;;;25.20;99.90;;;;;;5073533;28;20296;-83
2023/10/01 09:43:29;;;;;;;1.40;1.30;;;25.10;99.90;;;;;;5072796;28;20245;-83
2023/10/01 09:45:59;;;;;;;4.18;1.67;;;24.90;99.90;;;;;;5072940;28;20635;-82
2023/10/01 09:48:30;;;;;;;2.75;1.65;;;24.60;99.90;;;;;;5073245;28;20245;-82
2023/10/01 09:51:13;;;;;;;6.65;1.80;;;24.40;99.90;;;;;;5073300;28;20277;-82
2023/10/01 09:53:44;;;;;;;6.33;1.50;;;24.30;99.90;;;;;;5073162;28;20226;-83
2023/10/01 09:56:29;;;;;;;7.80;2.13;;;24.10;99.90;;;;;;5072916;28;20654;-83
2023/10/01 09:58:58;;;;;;;5.70;1.73;;;24.00;99.90;;;;;;5073087;28;20206;-83
2023/10/01 10:01:27;;;;;;;5.03;2.17;;;24.10;99.90;;;;;;5073023;28;20198;-82
2023/10/01 10:03:59;;;;;;;4.93;2.13;;;24.10;99.90;;;;;;5073049;28;20206;-82
2023/10/01 10:06:26;;;;;;;4.78;1.60;;;24.00;99.90;;;;;;5073075;28;20185;-82
2023/10/01 10:09:03;;;;;;;6.45;2.20;;;23.70;99.90;;;;;;5073012;28;20205;-82
2023/10/01 10:11:36;;;;;;;5.80;1.87;;;23.50;99.90;;;;;;5072668;28;20653;-82
2023/10/01 10:14:04;;;;;;;4.30;1.80;;;23.20;99.90;;;;;;5073032;28;20599;-83
2023/10/01 10:16:56;;;;;;;2.90;1.60;;;23.00;99.90;;;;;;5072980;28;20208;-82
2023/10/01 10:19:23;;;;;;;3.63;1.67;;;23.00;99.90;;;;;;5072622;28;20229;-82
2023/10/01 10:22:17;;;;;;;6.73;2.40;;;23.10;99.90;;;;;;5072825;28;20225;-82
2023/10/01 10:24:48;;;;;;;4.30;1.83;;;23.40;99.90;;;;;;5072645;28;20178;-82
2023/10/01 10:27:49;;;;;;;6.07;2.70;;;23.70;99.90;;;;;;5075955;28;20190;-82
2023/10/01 10:30:16;;;;;;;5.70;2.55;;;24.40;99.90;;;;;;5076454;28;20551;-82
2023/10/01 10:33:38;;;;;;;7.43;2.58;;;25.10;99.90;;;;;;5076848;28;20225;-82
2023/10/01 10:36:50;;;;;;;3.80;2.00;;;26.00;99.90;;;;;;5063389;28;20209;-82
2023/10/01 10:40:12;;;;;;;4.50;2.25;;;27.30;99.90;;;;;;5014311;28;20230;-83
2023/10/01 10:42:40;;;;;;;4.00;1.85;;;28.90;99.90;;;;;;4936686;29;20396;-83
2023/10/01 10:45:21;;;;;;;5.97;1.73;;;30.30;96.20;;;;;;5058180;28;20285;-83
2023/10/01 10:47:58;;;;;;;5.95;2.60;;;30.50;94.40;;;;;;5076414;28;20244;-83
2023/10/01 10:50:44;;;;;;;5.13;2.28;;;30.40;93.20;;;;;;5076187;28;20202;-82
2023/10/01 10:53:20;;;;;;;5.20;2.55;;;29.70;92.50;;;;;;5076220;28;20221;-83
2023/10/01 10:56:01;;;;;;;5.60;2.17;;;28.60;93.20;;;;;;5076232;28;20189;-82
2023/10/01 10:58:31;;;;;;;5.43;1.83;;;27.40;95.00;;;;;;5076729;28;20210;-83
2023/10/01 11:01:15;;;;;;;3.25;2.05;;;26.50;96.80;;;;;;5076284;28;20212;-82
2023/10/01 11:03:43;;;;;;;2.72;1.92;;;25.80;97.70;;;;;;5076213;28;20228;-83
2023/10/01 11:06:22;;;;;;;6.40;2.08;;;25.10;99.00;;;;;;5075995;28;20206;-83
2023/10/01 11:08:53;;;;;;;3.88;1.98;;;24.60;99.90;;;;;;5075985;28;20183;-82
2023/10/01 11:11:24;;;;;;;3.40;2.38;;;24.20;99.90;;;;;;5075965;28;20183;-83
2023/10/01 11:14:00;;;;;;;4.03;1.88;;;24.00;99.90;;;;;;5075760;28;20230;-82
2023/10/01 11:16:33;;;;;;;4.05;1.38;;;23.90;99.90;;;;;;5075853;28;20190;-83
2023/10/01 11:19:12;;;;;;;3.83;2.03;;;23.70;99.90;;;;;;5075727;28;20213;-82
2023/10/01 11:21:54;;;;;;;5.88;2.03;;;23.50;99.90;;;;;;5075742;28;20196;-82
2023/10/01 11:24:24;;;;;;;5.35;2.20;;;23.40;99.90;;;;;;5075710;28;20609;-83
2023/10/01 11:27:18;;;;;;;5.65;2.75;;;23.30;99.90;;;;;;5075685;28;20269;-82
2023/10/01 11:30:12;;;;;;;4.45;2.05;;;23.10;99.90;;;;;;5075744;28;20244;-82
2023/10/01 11:33:01;;;;;;;3.33;1.95;;;23.10;99.90;;;;;;5075118;28;20728;-81
2023/10/01 11:35:32;;;;;;;3.90;1.87;;;23.10;99.90;;;;;;5075562;28;20189;-82
2023/10/01 11:38:07;;;;;;;4.28;1.98;;;22.80;99.90;;;;;;5075339;28;20186;-82
2023/10/01 11:43:23;;;;;;;3.73;2.10;;;22.90;99.90;;;;;;5074480;28;20269;-82
2023/10/01 11:46:19;;;;;;;3.10;2.03;;;22.80;99.90;;;;;;5075336;28;20217;-82
2023/10/01 11:51:50;;;;;;;3.50;1.90;;;22.60;99.90;;;;;;5069425;28;20570;-82
2023/10/01 11:54:18;;;;;;;4.67;2.87;;;22.50;99.60;;;;;;5074818;28;20186;-82
2023/10/01 11:56:47;;;;;;;2.80;1.90;;;22.40;99.90;;;;;;5075000;28;20456;-81
2023/10/01 11:59:18;;;;;;;4.33;2.57;;;22.60;99.90;;;;;;5074602;28;20522;-82
2023/10/01 12:01:52;;;;;;;5.53;2.10;;;22.40;99.90;;;;;;5075068;28;20433;-82
2023/10/01 12:04:43;;;;;;;12.27;2.17;;;22.30;99.90;;;;;;5074957;28;20190;-82
2023/10/01 12:07:16;;;;;;;3.10;1.73;;;22.30;99.90;;;;;;5074871;28;20420;-82
2023/10/01 12:09:48;;;;;;;4.53;2.20;;;22.30;99.90;;;;;;5074849;28;20232;-82
2023/10/01 12:12:15;;;;;;;6.63;2.27;;;22.20;99.90;;;;;;5074724;28;20562;-82
2023/10/01 12:14:54;;;;;;;3.50;2.03;;;22.10;99.90;;;;;;5074372;28;20206;-82
2023/10/01 12:17:25;;;;;;;4.80;1.50;;;22.10;99.90;;;;;;5074733;28;20187;-82
2023/10/01 12:19:52;;;;;;;8.80;2.30;;;22.00;99.90;;;;;;5074514;28;20468;-83
2023/10/01 12:22:23;;;;;;;4.47;2.00;;;21.90;99.90;;;;;;5074493;28;20829;-84
2023/10/01 12:24:56;;;;;;;1.70;1.27;;;21.90;99.90;;;;;;5074506;28;20433;-82
2023/10/01 12:30:10;;;;;;;5.87;1.50;;;21.90;99.90;;;;;;5074737;28;20447;-82
2023/10/01 12:32:42;;;;;;;2.40;1.50;;;21.80;99.90;;;;;;5074490;28;20465;-83
2023/10/01 12:35:27;;;;;;;4.00;1.40;;;21.80;99.90;;;;;;5074293;28;20425;-82
2023/10/01 12:38:05;;;;;;;8.50;2.27;;;21.80;99.90;;;;;;5074293;28;20436;-82
2023/10/01 12:40:34;;;;;;;1.60;1.10;;;21.80;99.90;;;;;;5074165;28;20582;-83
2023/10/01 12:43:02;;;;;;;7.27;1.93;;;21.80;99.90;;;;;;5073697;28;20480;-82
2023/10/01 12:45:28;;;;;;;3.07;1.70;;;21.70;99.90;;;;;;5074039;28;20823;-82
2023/10/01 12:48:08;;;;;;;5.23;2.20;;;21.70;99.90;;;;;;5073609;28;20445;-82
2023/10/01 12:50:33;;;;;;;5.43;1.40;;;21.60;99.90;;;;;;5074593;28;20437;-85
2023/10/01 12:53:20;;;;;;;8.60;4.10;;;21.50;99.90;;;;;;5073859;28;21041;-85
2023/10/01 12:55:52;;;;;;;5.67;1.80;;;21.40;99.90;;;;;;5074159;28;20186;-85
2023/10/01 12:58:35;;;;;;;7.90;2.80;;;21.40;99.80;;;;;;5073899;28;20433;-85
2023/10/01 13:01:05;;;;;;;5.97;2.60;;;21.40;99.90;;;;;;5074098;28;20416;-85
2023/10/01 13:03:42;;;;;;;4.63;1.90;;;21.40;99.90;;;;;;5074039;28;20463;-85
2023/10/01 13:06:12;;;;;;;5.30;2.17;;;21.40;99.10;;;;;;5074014;28;20432;-85
2023/10/01 13:08:41;;;;;;;7.00;2.23;;;21.40;99.90;;;;;;5073350;28;20494;-84
2023/10/01 13:11:07;;;;;;;4.70;1.90;;;21.30;99.50;;;;;;5073652;28;20542;-86
2023/10/01 13:13:35;;;;;;;4.90;1.40;;;21.30;99.70;;;;;;5073616;28;20560;-85
2023/10/01 13:16:03;;;;;;;1.37;1.27;;;21.30;99.00;;;;;;5073605;28;20193;-85
2023/10/01 13:18:29;;;;;;;1.93;1.47;;;21.30;99.70;;;;;;5073583;28;20476;-85
2023/10/01 13:21:06;;;;;;;3.27;1.50;;;21.30;99.30;;;;;;5073575;28;20504;-85
2023/10/01 13:23:41;;;;;;;5.90;1.87;;;21.30;99.90;;;;;;5073758;28;20586;-85
2023/10/01 13:26:14;;;;;;;8.20;1.87;;;21.30;98.10;;;;;;5073641;28;20432;-84
2023/10/01 13:28:46;;;;;;;5.53;1.90;;;21.20;98.70;;;;;;5073621;28;20833;-85
2023/10/01 13:31:35;;;;;;;2.60;1.70;;;21.20;99.90;;;;;;5073516;28;20420;-84
2023/10/01 13:34:21;;;;;;;5.93;1.87;;;21.10;99.80;;;;;;5074019;28;20435;-84